createdAt,value
2018-09-07T00:01:52.995Z,63.23
2018-09-07T00:04:20.787Z,59.10
2018-09-07T00:06:48.428Z,71.57
2018-09-07T00:09:16.178Z,62.63
2018-09-07T00:11:44.077Z,62.67
2018-09-07T00:14:11.736Z,57.43
2018-09-07T00:16:39.480Z,48.90
2018-09-07T00:19:07.139Z,53.80
2018-09-07T00:21:34.867Z,37.53
2018-09-07T00:24:02.609Z,40.33
2018-09-07T00:26:30.427Z,31.53
2018-09-07T00:28:58.211Z,26.87
2018-09-07T00:31:25.933Z,26.27
2018-09-07T00:33:53.647Z,26.00
2018-09-07T00:36:21.505Z,26.33
2018-09-07T00:38:49.201Z,28.90
2018-09-07T00:41:17.097Z,22.37
2018-09-07T00:43:44.741Z,24.20
2018-09-07T00:46:12.466Z,23.17
2018-09-07T00:48:40.466Z,23.27
2018-09-07T00:51:08.262Z,24.50
2018-09-07T00:53:35.907Z,27.93
2018-09-07T00:56:03.688Z,24.37
2018-09-07T00:58:31.702Z,22.33
2018-09-07T01:00:59.510Z,26.73
2018-09-07T01:03:27.195Z,25.67
2018-09-07T01:05:54.850Z,28.13
2018-09-07T01:08:22.565Z,27.13
2018-09-07T01:10:50.257Z,27.77
2018-09-07T01:13:17.914Z,30.63
2018-09-07T01:15:45.629Z,27.80
2018-09-07T01:18:13.478Z,31.10
2018-09-07T01:20:41.272Z,32.20
2018-09-07T01:23:08.984Z,33.50
2018-09-07T01:25:36.666Z,38.60
2018-09-07T01:28:04.767Z,43.43
2018-09-07T01:30:32.882Z,44.33
2018-09-07T01:33:00.557Z,50.97
2018-09-07T01:35:29.193Z,46.80
2018-09-07T01:38:02.641Z,49.70
2018-09-07T01:40:30.460Z,49.97
2018-09-07T01:42:58.187Z,54.60
2018-09-07T01:45:25.900Z,52.80
2018-09-07T01:47:53.609Z,52.20
2018-09-07T01:50:21.416Z,49.57
2018-09-07T01:52:49.166Z,53.30
2018-09-07T01:55:16.892Z,52.53
2018-09-07T01:57:44.521Z,51.73
2018-09-07T02:00:12.334Z,49.43
2018-09-07T02:02:45.803Z,52.83
2018-09-07T02:05:14.082Z,48.43
2018-09-07T02:07:41.801Z,54.20
2018-09-07T02:10:09.485Z,48.57
2018-09-07T02:12:37.189Z,48.30
2018-09-07T02:15:05.195Z,50.17
2018-09-07T02:17:34.296Z,47.00
2018-09-07T02:20:02.044Z,51.60
2018-09-07T02:22:30.540Z,43.03
2018-09-07T02:24:58.233Z,47.83
2018-09-07T02:27:26.214Z,48.37
2018-09-07T02:29:54.032Z,47.63
2018-09-07T02:32:21.815Z,44.73
2018-09-07T02:34:50.021Z,49.60
2018-09-07T02:37:17.957Z,47.50
2018-09-07T02:39:45.931Z,51.23
2018-09-07T02:42:13.906Z,49.47
2018-09-07T02:44:41.655Z,41.63
2018-09-07T02:47:09.489Z,41.90
2018-09-07T02:49:37.250Z,49.40
2018-09-07T02:52:05.158Z,40.00
2018-09-07T02:54:32.927Z,40.03
2018-09-07T02:57:00.625Z,41.13
2018-09-07T02:59:28.380Z,39.27
2018-09-07T03:01:56.273Z,40.43
2018-09-07T03:04:24.005Z,42.33
2018-09-07T03:06:51.709Z,42.43
2018-09-07T03:09:19.545Z,42.20
2018-09-07T03:11:47.360Z,40.03
2018-09-07T03:14:15.103Z,37.93
2018-09-07T03:16:43.000Z,34.97
2018-09-07T03:19:10.705Z,37.73
2018-09-07T03:21:38.564Z,40.33
2018-09-07T03:24:06.499Z,41.43
2018-09-07T03:26:34.190Z,39.60
2018-09-07T03:29:01.992Z,33.80
2018-09-07T03:31:29.692Z,36.07
2018-09-07T03:33:57.412Z,33.83
2018-09-07T03:36:25.086Z,32.73
2018-09-07T03:38:52.845Z,32.77
2018-09-07T03:41:20.740Z,30.83
2018-09-07T03:43:48.609Z,36.80
2018-09-07T03:46:16.371Z,34.60
2018-09-07T03:48:44.114Z,34.77
2018-09-07T03:51:11.810Z,37.30
2018-09-07T03:53:39.526Z,33.83
2018-09-07T03:56:07.254Z,39.43
2018-09-07T03:58:34.929Z,41.60
2018-09-07T04:01:02.640Z,37.60
2018-09-07T04:03:30.342Z,36.57
2018-09-07T04:05:58.013Z,34.77
2018-09-07T04:08:25.715Z,36.60
2018-09-07T04:10:53.550Z,42.90
2018-09-07T04:13:21.321Z,34.67
2018-09-07T04:15:49.112Z,33.70
2018-09-07T04:18:16.856Z,31.77
2018-09-07T04:20:44.518Z,33.27
2018-09-07T04:23:12.299Z,33.47
2018-09-07T04:25:40.138Z,37.33
2018-09-07T04:28:08.007Z,35.67
2018-09-07T04:30:35.910Z,36.03
2018-09-07T04:33:03.635Z,37.77
2018-09-07T04:35:31.320Z,33.07
2018-09-07T04:37:59.005Z,33.33
2018-09-07T04:40:26.849Z,35.63
2018-09-07T04:42:54.517Z,33.10
2018-09-07T04:45:22.299Z,38.10
2018-09-07T04:47:50.113Z,31.93
2018-09-07T04:50:17.925Z,35.43
2018-09-07T04:52:45.688Z,32.67
2018-09-07T04:55:13.511Z,31.60
2018-09-07T04:57:41.219Z,44.03
2018-09-07T05:00:09.053Z,32.53
2018-09-07T05:02:37.229Z,29.33
2018-09-07T05:05:05.017Z,33.00
2018-09-07T05:07:32.713Z,42.67
2018-09-07T05:10:00.505Z,28.60
2018-09-07T05:12:28.357Z,33.90
2018-09-07T05:14:56.065Z,31.40
2018-09-07T05:17:23.929Z,39.63
2018-09-07T05:19:51.593Z,29.93
2018-09-07T05:22:19.384Z,28.70
2018-09-07T05:24:47.216Z,27.00
2018-09-07T05:27:15.038Z,34.33
2018-09-07T05:29:42.817Z,42.23
2018-09-07T05:32:10.724Z,35.50
2018-09-07T05:34:38.479Z,30.43
2018-09-07T05:37:06.260Z,28.60
2018-09-07T05:39:33.998Z,29.83
2018-09-07T05:42:01.674Z,30.70
2018-09-07T05:44:29.458Z,32.23
2018-09-07T05:46:57.313Z,32.27
2018-09-07T05:49:25.103Z,32.47
2018-09-07T05:51:52.897Z,42.30
2018-09-07T05:54:20.646Z,29.00
2018-09-07T05:56:48.429Z,29.63
2018-09-07T05:59:16.110Z,56.53
2018-09-07T06:01:44.022Z,37.57
2018-09-07T06:04:11.782Z,26.03
2018-09-07T06:06:39.465Z,32.03
2018-09-07T06:09:09.012Z,25.23
2018-09-07T06:11:36.994Z,23.90
2018-09-07T06:14:04.869Z,24.90
2018-09-07T06:16:33.219Z,28.50
2018-09-07T06:19:00.992Z,24.77
2018-09-07T06:21:28.781Z,21.63
2018-09-07T06:23:56.497Z,25.13
2018-09-07T06:26:24.261Z,24.37
2018-09-07T06:28:52.055Z,23.70
2018-09-07T06:31:19.813Z,34.53
2018-09-07T06:33:47.497Z,25.37
2018-09-07T06:36:15.417Z,26.27
2018-09-07T06:38:43.228Z,27.60
2018-09-07T06:41:11.049Z,24.63
2018-09-07T06:43:38.757Z,31.83
2018-09-07T06:46:06.549Z,25.57
2018-09-07T06:48:34.658Z,30.33
2018-09-07T06:51:02.527Z,28.27
2018-09-07T06:53:30.726Z,23.03
2018-09-07T06:55:58.770Z,30.83
2018-09-07T06:58:26.636Z,25.10
2018-09-07T07:00:54.400Z,69.60
2018-09-07T07:03:22.358Z,28.07
2018-09-07T07:05:49.998Z,32.67
2018-09-07T07:08:17.729Z,28.90
2018-09-07T07:10:45.494Z,27.50
2018-09-07T07:13:13.192Z,24.80
2018-09-07T07:15:40.969Z,24.90
2018-09-07T07:18:08.652Z,24.60
2018-09-07T07:20:36.291Z,28.97
2018-09-07T07:23:04.150Z,28.23
2018-09-07T07:25:31.812Z,27.77
2018-09-07T07:27:59.597Z,29.30
2018-09-07T07:30:27.525Z,22.03
2018-09-07T07:32:55.235Z,29.53
2018-09-07T07:35:22.958Z,20.10
2018-09-07T07:37:50.809Z,20.83
2018-09-07T07:40:18.631Z,27.53
2018-09-07T07:42:46.475Z,21.70
2018-09-07T07:45:14.601Z,23.97
2018-09-07T07:47:42.358Z,22.47
2018-09-07T07:50:10.097Z,19.27
2018-09-07T07:52:37.888Z,32.93
2018-09-07T07:55:06.031Z,22.40
2018-09-07T07:57:33.799Z,102.93
2018-09-07T08:00:01.561Z,26.23
2018-09-07T08:02:29.261Z,40.67
2018-09-07T08:04:56.901Z,26.60
2018-09-07T08:07:25.437Z,59.07
2018-09-07T08:09:53.156Z,67.97
2018-09-07T08:12:21.041Z,34.90
2018-09-07T08:14:48.707Z,99.43
2018-09-07T08:17:16.550Z,75.40
2018-09-07T08:19:44.306Z,37.37
2018-09-07T08:22:12.082Z,22.67
2018-09-07T08:24:39.893Z,19.00
2018-09-07T08:27:07.684Z,18.70
2018-09-07T08:29:35.429Z,20.23
2018-09-07T08:32:03.161Z,23.13
2018-09-07T08:34:30.916Z,26.47
2018-09-07T08:36:58.640Z,17.80
2018-09-07T08:39:26.357Z,224.70
2018-09-07T08:41:54.061Z,220.77
2018-09-07T08:44:21.991Z,26.77
2018-09-07T08:46:49.798Z,0.90
2018-09-07T08:49:17.505Z,0.80
2018-09-07T08:51:45.312Z,0.80
2018-09-07T08:54:13.082Z,0.80
2018-09-07T08:56:40.825Z,0.83
2018-09-07T08:59:08.607Z,0.80
2018-09-07T09:01:36.379Z,0.70
2018-09-07T09:04:04.474Z,0.80
2018-09-07T09:06:32.293Z,2.00
2018-09-07T09:09:00.105Z,6.23
2018-09-07T09:11:27.963Z,0.80
2018-09-07T09:13:55.785Z,3.93
2018-09-07T09:16:23.517Z,0.80
2018-09-07T09:18:51.259Z,0.80
2018-09-07T09:21:19.233Z,0.90
2018-09-07T09:23:47.360Z,1.00
2018-09-07T09:26:15.061Z,0.80
2018-09-07T09:28:42.904Z,0.90
2018-09-07T09:31:10.916Z,0.80
2018-09-07T09:33:38.668Z,0.80
2018-09-07T09:36:06.458Z,0.80
2018-09-07T09:38:34.133Z,2.20
2018-09-07T09:41:01.850Z,0.73
2018-09-07T09:43:29.657Z,1.90
2018-09-07T09:45:57.371Z,1.10
2018-09-07T09:48:25.152Z,0.90
2018-09-07T09:50:52.890Z,0.80
2018-09-07T09:53:20.612Z,0.73
2018-09-07T09:55:48.392Z,0.90
2018-09-07T09:58:16.242Z,0.80
2018-09-07T10:00:49.525Z,2.17
2018-09-07T10:03:24.674Z,2.40
2018-09-07T10:05:53.115Z,0.80
2018-09-07T10:08:20.899Z,0.70
2018-09-07T10:10:49.514Z,0.80
2018-09-07T10:13:17.206Z,0.73
2018-09-07T10:15:45.052Z,0.70
2018-09-07T10:18:12.803Z,0.70
2018-09-07T10:20:40.500Z,5.83
2018-09-07T10:23:08.285Z,0.80
2018-09-07T10:25:36.082Z,0.77
2018-09-07T10:28:03.817Z,0.80
2018-09-07T10:30:31.635Z,0.80
2018-09-07T10:32:59.481Z,1.00
2018-09-07T10:35:27.249Z,0.90
2018-09-07T10:37:55.147Z,0.80
2018-09-07T10:40:23.104Z,1.03
2018-09-07T10:42:50.883Z,6.70
2018-09-07T10:45:18.761Z,0.80
2018-09-07T10:47:46.496Z,0.80
2018-09-07T10:50:14.269Z,0.80
2018-09-07T10:52:42.095Z,0.80
2018-09-07T10:55:09.919Z,0.80
2018-09-07T10:57:37.629Z,0.80
2018-09-07T11:00:05.582Z,0.80
2018-09-07T11:02:33.447Z,1.87
2018-09-07T11:05:01.427Z,0.70
2018-09-07T11:07:29.090Z,0.70
2018-09-07T11:09:57.084Z,0.87
2018-09-07T11:12:24.860Z,0.80
2018-09-07T11:14:52.681Z,0.70
2018-09-07T11:17:20.790Z,0.80
2018-09-07T11:19:48.652Z,0.80
2018-09-07T11:22:16.482Z,0.80
2018-09-07T11:24:44.288Z,0.70
2018-09-07T11:27:11.967Z,0.70
2018-09-07T11:29:39.672Z,0.80
2018-09-07T11:32:07.366Z,0.80
2018-09-07T11:34:35.152Z,0.70
2018-09-07T11:37:02.834Z,0.80
2018-09-07T11:39:30.564Z,0.70
2018-09-07T11:41:58.428Z,0.80
2018-09-07T11:44:26.367Z,0.73
2018-09-07T11:46:54.187Z,0.73
2018-09-07T11:49:21.984Z,0.73
2018-09-07T11:51:50.070Z,0.80
2018-09-07T11:54:17.812Z,0.80
2018-09-07T11:56:45.514Z,0.70
2018-09-07T11:59:13.371Z,0.80
2018-09-07T12:01:41.299Z,1.10
2018-09-07T12:04:09.314Z,1.20
2018-09-07T12:06:36.989Z,0.97
2018-09-07T12:09:07.320Z,0.90
2018-09-07T12:11:35.034Z,1.10
2018-09-07T12:14:02.801Z,1.20
2018-09-07T12:16:30.643Z,1.30
2018-09-07T12:18:58.444Z,1.40
2018-09-07T12:21:26.215Z,1.63
2018-09-07T12:23:54.366Z,1.90
2018-09-07T12:26:22.563Z,2.00
2018-09-07T12:28:50.513Z,2.00
2018-09-07T12:31:18.441Z,2.10
2018-09-07T12:33:46.240Z,2.20
2018-09-07T12:36:13.901Z,2.30
2018-09-07T12:38:41.633Z,2.40
2018-09-07T12:41:09.884Z,2.50
2018-09-07T12:43:37.826Z,2.60
2018-09-07T12:46:06.058Z,3.77
2018-09-07T12:48:34.071Z,2.73
2018-09-07T12:51:02.704Z,2.90
2018-09-07T12:53:30.713Z,3.10
2018-09-07T12:55:58.597Z,3.03
2018-09-07T12:58:26.486Z,3.13
2018-09-07T13:00:54.411Z,4.53
2018-09-07T13:03:22.165Z,3.20
2018-09-07T13:05:50.219Z,3.20
2018-09-07T13:08:18.098Z,3.30
2018-09-07T13:10:45.765Z,3.40
2018-09-07T13:13:13.491Z,3.40
2018-09-07T13:15:41.180Z,3.60
2018-09-07T13:18:09.018Z,3.60
2018-09-07T13:20:37.161Z,3.57
2018-09-07T13:23:05.429Z,3.63
2018-09-07T13:25:33.352Z,3.57
2018-09-07T13:28:01.465Z,3.60
2018-09-07T13:30:29.412Z,3.60
2018-09-07T13:32:57.190Z,3.53
2018-09-07T13:35:24.888Z,3.40
2018-09-07T13:37:52.775Z,3.40
2018-09-07T13:40:20.648Z,3.40
2018-09-07T13:42:48.342Z,3.47
2018-09-07T13:45:16.484Z,3.40
2018-09-07T13:47:44.272Z,3.27
2018-09-07T13:50:11.964Z,3.20
2018-09-07T13:52:39.706Z,3.17
2018-09-07T13:55:07.518Z,9.53
2018-09-07T13:57:35.218Z,3.10
2018-09-07T14:00:03.390Z,3.10
2018-09-07T14:02:31.327Z,3.13
2018-09-07T14:05:00.765Z,3.23
2018-09-07T14:07:28.670Z,3.27
2018-09-07T14:09:56.989Z,3.23
2018-09-07T14:12:24.977Z,3.30
2018-09-07T14:14:53.021Z,3.23
2018-09-07T14:17:21.016Z,3.20
2018-09-07T14:19:48.866Z,3.20
2018-09-07T14:22:17.426Z,3.20
2018-09-07T14:24:45.639Z,5.40
2018-09-07T14:27:13.874Z,3.20
2018-09-07T14:29:41.886Z,3.00
2018-09-07T14:32:10.027Z,3.10
2018-09-07T14:34:38.537Z,3.10
2018-09-07T14:37:06.550Z,3.20
2018-09-07T14:39:34.674Z,3.30
2018-09-07T14:42:02.749Z,3.20
2018-09-07T14:44:30.502Z,3.93
2018-09-07T14:46:58.372Z,3.13
2018-09-07T14:49:26.129Z,3.27
2018-09-07T14:51:53.994Z,3.20
2018-09-07T14:54:22.009Z,3.23
2018-09-07T14:56:49.966Z,3.20
2018-09-07T14:59:17.975Z,3.20
2018-09-07T15:01:45.905Z,3.30
2018-09-07T15:04:13.861Z,3.30
2018-09-07T15:06:41.759Z,3.30
2018-09-07T15:09:09.886Z,3.33
2018-09-07T15:11:37.922Z,3.40
2018-09-07T15:14:05.737Z,3.33
2018-09-07T15:16:33.605Z,3.40
2018-09-07T15:19:01.250Z,3.60
2018-09-07T15:24:35.789Z,3.40
2018-09-07T15:27:04.338Z,3.43
2018-09-07T15:29:33.482Z,3.40
2018-09-07T15:32:01.622Z,3.40
2018-09-07T15:37:13.490Z,3.40
2018-09-07T15:39:41.523Z,3.47
2018-09-07T15:44:44.707Z,3.43
2018-09-07T15:47:14.556Z,3.40
2018-09-07T15:49:43.223Z,3.43
2018-09-07T15:52:11.482Z,3.47
2018-09-07T15:54:39.402Z,3.43
2018-09-07T15:57:07.386Z,3.40
2018-09-07T15:59:35.436Z,3.30
2018-09-07T16:02:03.614Z,3.30
2018-09-07T16:04:31.635Z,3.20
2018-09-07T16:07:00.246Z,3.20
2018-09-07T16:09:28.249Z,3.30
2018-09-07T16:11:56.016Z,3.27
2018-09-07T16:14:23.790Z,3.30
2018-09-07T16:16:51.724Z,3.20
2018-09-07T16:19:19.373Z,3.10
2018-09-07T16:21:47.175Z,3.00
2018-09-07T16:24:15.075Z,3.00
2018-09-07T16:26:42.859Z,3.00
2018-09-07T16:29:10.891Z,3.00
2018-09-07T16:31:39.009Z,2.80
2018-09-07T16:34:06.684Z,2.80
2018-09-07T16:36:34.588Z,2.80
2018-09-07T16:39:03.294Z,2.50
2018-09-07T16:41:31.117Z,2.57
2018-09-07T16:43:58.925Z,2.50
2018-09-07T16:46:26.636Z,2.40
2018-09-07T16:48:54.384Z,2.40
2018-09-07T16:51:22.283Z,2.40
2018-09-07T16:53:51.329Z,2.40
2018-09-07T16:56:19.049Z,2.40
2018-09-07T16:58:46.794Z,2.40
2018-09-07T17:01:14.513Z,2.30
2018-09-07T17:03:42.162Z,2.30
2018-09-07T17:06:09.943Z,2.30
2018-09-07T17:08:37.657Z,2.20
2018-09-07T17:11:05.409Z,2.10
2018-09-07T17:13:33.020Z,2.10
2018-09-07T17:16:00.727Z,2.10
2018-09-07T17:18:28.489Z,2.10
2018-09-07T17:20:56.184Z,2.10
2018-09-07T17:23:23.936Z,2.10
2018-09-07T17:25:51.802Z,2.00
2018-09-07T17:28:19.726Z,2.00
2018-09-07T17:30:47.449Z,1.90
2018-09-07T17:33:15.254Z,1.80
2018-09-07T17:35:43.015Z,1.60
2018-09-07T17:38:10.773Z,1.60
2018-09-07T17:40:38.498Z,1.50
2018-09-07T17:43:06.658Z,1.50
2018-09-07T17:45:34.541Z,1.47
2018-09-07T17:48:02.311Z,1.30
2018-09-07T17:50:30.094Z,1.20
2018-09-07T17:52:57.811Z,1.10
2018-09-07T17:55:25.693Z,1.00
2018-09-07T17:57:53.885Z,0.97
2018-09-07T18:00:21.712Z,1.00
2018-09-07T18:02:49.708Z,0.90
2018-09-07T18:05:23.329Z,0.90
2018-09-07T18:07:51.062Z,0.90
2018-09-07T18:10:18.724Z,0.90
2018-09-07T18:12:46.525Z,0.90
2018-09-07T18:15:14.186Z,0.83
2018-09-07T18:17:42.320Z,0.80
2018-09-07T18:20:10.119Z,0.80
2018-09-07T18:22:37.841Z,0.80
2018-09-07T18:25:05.867Z,0.80
2018-09-07T18:27:33.650Z,0.80
2018-09-07T18:30:01.379Z,0.80
2018-09-07T18:32:29.080Z,0.80
2018-09-07T18:34:56.988Z,0.80
2018-09-07T18:37:24.713Z,1.10
2018-09-07T18:39:52.585Z,0.80
2018-09-07T18:42:20.358Z,0.80
2018-09-07T18:44:48.197Z,0.80
2018-09-07T18:47:15.964Z,0.80
2018-09-07T18:49:43.867Z,0.80
2018-09-07T18:52:11.620Z,0.80
2018-09-07T18:54:39.258Z,0.80
2018-09-07T18:57:06.997Z,0.87
2018-09-07T18:59:34.629Z,0.90
2018-09-07T19:02:02.385Z,0.80
2018-09-07T19:04:30.118Z,0.80
2018-09-07T19:06:57.990Z,0.80
2018-09-07T19:09:25.718Z,0.80
2018-09-07T19:11:53.644Z,0.87
2018-09-07T19:14:21.364Z,0.83
2018-09-07T19:16:49.074Z,0.80
2018-09-07T19:19:16.810Z,0.80
2018-09-07T19:21:44.542Z,0.80
2018-09-07T19:24:12.204Z,0.80
2018-09-07T19:26:39.966Z,0.80
2018-09-07T19:29:07.691Z,0.87
2018-09-07T19:31:35.468Z,0.80
2018-09-07T19:34:03.191Z,0.83
2018-09-07T19:36:30.898Z,0.80
2018-09-07T19:38:58.950Z,0.80
2018-09-07T19:41:27.038Z,0.80
2018-09-07T19:43:54.674Z,0.90
2018-09-07T19:46:22.387Z,0.80
2018-09-07T19:48:50.175Z,0.80
2018-09-07T19:51:18.054Z,0.80
2018-09-07T19:53:45.827Z,2.13
2018-09-07T19:56:13.559Z,0.80
2018-09-07T19:58:41.370Z,0.80
2018-09-07T20:01:09.294Z,0.80
2018-09-07T20:03:37.175Z,0.80
2018-09-07T20:06:04.893Z,0.90
2018-09-07T20:08:32.691Z,0.80
2018-09-07T20:11:00.419Z,0.80
2018-09-07T20:13:28.189Z,0.80
2018-09-07T20:15:56.012Z,0.90
2018-09-07T20:18:23.761Z,0.80
2018-09-07T20:20:51.479Z,25.87
2018-09-07T20:23:19.289Z,0.90
2018-09-07T20:25:47.033Z,0.80
2018-09-07T20:28:14.961Z,0.80
2018-09-07T20:30:42.733Z,0.80
2018-09-07T20:33:10.488Z,0.80
2018-09-07T20:35:38.162Z,0.80
2018-09-07T20:38:05.851Z,0.80
2018-09-07T20:40:33.538Z,0.80
2018-09-07T20:43:01.539Z,0.80
2018-09-07T20:45:29.498Z,0.83
2018-09-07T20:47:57.357Z,0.80
2018-09-07T20:50:24.970Z,9.73
2018-09-07T20:52:52.676Z,0.80
2018-09-07T20:55:20.508Z,0.80
2018-09-07T20:57:48.339Z,0.80
2018-09-07T21:00:16.120Z,0.80
2018-09-07T21:02:43.882Z,0.80
2018-09-07T21:05:11.651Z,0.90
2018-09-07T21:07:40.584Z,0.80
2018-09-07T21:10:08.373Z,0.80
2018-09-07T21:12:35.945Z,0.80
2018-09-07T21:15:04.028Z,0.80
2018-09-07T21:17:31.839Z,0.80
2018-09-07T21:19:59.959Z,0.80
2018-09-07T21:22:27.828Z,0.87
2018-09-07T21:24:55.549Z,0.80
2018-09-07T21:27:23.326Z,0.80
2018-09-07T21:29:51.121Z,0.80
2018-09-07T21:32:19.047Z,0.90
2018-09-07T21:34:46.867Z,0.80
2018-09-07T21:37:14.705Z,0.80
2018-09-07T21:39:42.533Z,0.80
2018-09-07T21:42:10.313Z,0.80
2018-09-07T21:44:37.973Z,0.80
2018-09-07T21:47:06.025Z,0.80
2018-09-07T21:49:33.707Z,1.40
2018-09-07T21:52:01.407Z,0.80
2018-09-07T21:54:29.301Z,0.80
2018-09-07T21:56:57.221Z,0.80
2018-09-07T21:59:24.957Z,0.80
2018-09-07T22:01:52.738Z,0.83
2018-09-07T22:04:20.527Z,0.80
2018-09-07T22:06:54.204Z,0.80
2018-09-07T22:09:21.902Z,1.83
2018-09-07T22:11:49.572Z,0.80
2018-09-07T22:14:17.236Z,0.80
2018-09-07T22:16:45.180Z,0.80
2018-09-07T22:19:12.894Z,0.80
2018-09-07T22:21:40.691Z,0.80
2018-09-07T22:24:08.386Z,0.80
2018-09-07T22:26:36.070Z,0.80
2018-09-07T22:29:03.886Z,0.80
2018-09-07T22:31:31.634Z,0.80
2018-09-07T22:33:59.324Z,0.80
2018-09-07T22:36:27.208Z,0.80
2018-09-07T22:38:54.970Z,0.80
2018-09-07T22:41:22.673Z,0.80
2018-09-07T22:43:50.485Z,0.80
2018-09-07T22:46:18.121Z,0.80
2018-09-07T22:48:45.821Z,1.53
2018-09-07T22:51:13.497Z,0.93
2018-09-07T22:53:41.289Z,0.80
2018-09-07T22:56:09.057Z,0.80
2018-09-07T22:58:36.773Z,0.90
2018-09-07T23:01:04.557Z,0.80
2018-09-07T23:03:32.261Z,1.30
2018-09-07T23:05:59.935Z,0.80
2018-09-07T23:08:27.617Z,0.90
2018-09-07T23:10:56.237Z,0.80
2018-09-07T23:13:24.331Z,0.80
2018-09-07T23:15:52.153Z,0.80
2018-09-07T23:18:19.825Z,0.90
2018-09-07T23:20:47.689Z,0.80
2018-09-07T23:23:15.377Z,0.87
2018-09-07T23:25:43.637Z,0.80
2018-09-07T23:28:11.436Z,0.90
2018-09-07T23:30:39.104Z,0.90
2018-09-07T23:33:06.880Z,0.80
2018-09-07T23:35:34.565Z,0.80
2018-09-07T23:38:02.326Z,0.80
2018-09-07T23:40:30.068Z,0.80
2018-09-07T23:42:57.988Z,0.80
2018-09-07T23:45:25.684Z,0.80
2018-09-07T23:47:53.416Z,0.80
2018-09-07T23:50:21.206Z,0.80
2018-09-07T23:52:49.072Z,0.80
2018-09-07T23:55:16.798Z,0.80
2018-09-07T23:57:44.498Z,0.80
